Time;durP1;ratioP1;P1;durP2;ratioP2;P2;SDS_P1;SDS_P2;PMS_P1;PMS_P2;Temp;Humidity;BMP_temperature;BMP_pressure;BME280_temperature;BME280_humidity;BME280_pressure;Samples;Min_cycle;Max_cycle;Signal;HPM_P1;HPM_P2
2021/09/22 00:02:29;;;;;;;16.00;10.95;;;12.10;86.20;;;;;;5021000;28;20033;-82
2021/09/22 00:04:54;;;;;;;17.88;11.68;;;12.10;86.50;;;;;;5015977;28;20030;-83
2021/09/22 00:07:20;;;;;;;18.73;11.75;;;12.10;86.50;;;;;;5034476;28;20034;-83
2021/09/22 00:09:45;;;;;;;17.45;11.05;;;12.10;86.60;;;;;;5034843;28;20112;-82
2021/09/22 00:12:11;;;;;;;18.25;11.10;;;12.10;86.60;;;;;;5015003;28;20025;-82
2021/09/22 00:14:37;;;;;;;16.83;10.95;;;12.10;86.60;;;;;;4998698;28;20386;-82
2021/09/22 00:17:02;;;;;;;16.98;10.23;;;12.00;86.60;;;;;;5017767;28;20021;-83
2021/09/22 00:19:28;;;;;;;19.98;10.15;;;12.10;86.50;;;;;;5017777;28;20048;-83
2021/09/22 00:21:54;;;;;;;15.98;9.80;;;12.00;86.40;;;;;;5017452;28;20034;-83
2021/09/22 00:24:19;;;;;;;13.85;9.15;;;12.00;86.40;;;;;;5001189;28;20030;-83
2021/09/22 00:26:45;;;;;;;14.55;9.02;;;12.00;86.40;;;;;;5016910;28;20056;-83
2021/09/22 00:29:11;;;;;;;15.55;9.35;;;12.00;86.30;;;;;;5033932;28;20017;-83
2021/09/22 00:31:37;;;;;;;19.40;9.90;;;11.90;86.20;;;;;;5014536;28;20049;-83
2021/09/22 00:34:06;;;;;;;16.27;10.30;;;11.90;86.20;;;;;;5031325;28;20021;-82
2021/09/22 00:36:33;;;;;;;12.93;9.48;;;11.90;86.20;;;;;;5013901;28;20033;-83
2021/09/22 00:38:58;;;;;;;17.10;9.00;;;11.80;86.20;;;;;;5046363;28;20112;-83
2021/09/22 00:41:25;;;;;;;17.08;10.23;;;11.80;86.30;;;;;;5035211;28;20152;-82
2021/09/22 00:43:50;;;;;;;16.98;10.25;;;11.70;86.40;;;;;;5034844;28;20099;-82
2021/09/22 00:46:16;;;;;;;14.48;9.80;;;11.80;86.40;;;;;;5017328;28;20425;-82
2021/09/22 00:48:42;;;;;;;15.20;10.32;;;11.70;86.30;;;;;;5033993;28;20025;-82
2021/09/22 00:51:08;;;;;;;15.63;10.57;;;11.70;86.40;;;;;;5017350;28;20505;-82
2021/09/22 00:53:35;;;;;;;13.95;10.95;;;11.70;86.50;;;;;;5033549;28;20056;-82
2021/09/22 00:56:03;;;;;;;13.88;10.55;;;11.70;86.50;;;;;;5016705;28;20049;-82
2021/09/22 00:58:31;;;;;;;13.03;10.00;;;11.60;86.50;;;;;;5032885;28;20116;-82
2021/09/22 01:00:57;;;;;;;14.30;10.25;;;11.60;86.60;;;;;;5030557;28;20345;-82
2021/09/22 01:03:23;;;;;;;15.82;9.55;;;11.50;86.40;;;;;;5030327;28;20037;-83
2021/09/22 01:05:51;;;;;;;13.52;8.93;;;11.50;86.40;;;;;;5033075;28;20026;-83
2021/09/22 01:08:19;;;;;;;15.57;11.07;;;11.50;86.40;;;;;;5033484;28;20053;-82
2021/09/22 01:10:46;;;;;;;15.32;10.90;;;11.50;86.30;;;;;;5033694;28;20075;-83
2021/09/22 01:13:12;;;;;;;16.58;10.32;;;11.50;86.40;;;;;;5034218;28;20022;-82
2021/09/22 01:15:39;;;;;;;16.30;10.77;;;11.40;86.50;;;;;;5034657;28;20025;-83
2021/09/22 01:18:12;;;;;;;19.52;13.30;;;11.40;86.60;;;;;;5016821;28;20070;-83
2021/09/22 01:20:40;;;;;;;18.48;12.73;;;11.30;86.80;;;;;;5033305;28;20025;-83
2021/09/22 01:23:08;;;;;;;17.98;11.52;;;11.40;86.90;;;;;;5033088;28;20030;-83
2021/09/22 01:25:36;;;;;;;19.07;12.30;;;11.30;87.00;;;;;;5019309;28;20040;-83
2021/09/22 01:28:03;;;;;;;17.38;11.25;;;11.40;87.10;;;;;;5033036;28;20033;-82
2021/09/22 01:30:29;;;;;;;14.60;10.68;;;11.30;87.10;;;;;;5016857;28;20025;-82
2021/09/22 01:32:58;;;;;;;15.20;10.55;;;11.30;87.10;;;;;;5033877;28;20037;-82
2021/09/22 01:35:25;;;;;;;18.42;10.50;;;11.30;87.70;;;;;;5034259;28;20351;-82
2021/09/22 01:37:51;;;;;;;15.38;10.30;;;11.30;87.10;;;;;;5032761;28;20124;-82
2021/09/22 01:40:18;;;;;;;15.50;10.23;;;11.30;87.10;;;;;;5034075;28;20037;-82
2021/09/22 01:42:46;;;;;;;13.23;9.65;;;11.20;87.10;;;;;;5033389;28;20029;-82
2021/09/22 01:45:14;;;;;;;15.60;9.57;;;11.30;87.10;;;;;;5033000;28;20030;-82
2021/09/22 01:47:41;;;;;;;20.45;11.15;;;11.20;87.00;;;;;;5032650;28;20018;-82
2021/09/22 01:50:18;;;;;;;15.30;10.93;;;11.20;87.60;;;;;;5032673;28;20475;-82
2021/09/22 01:52:45;;;;;;;16.63;11.63;;;11.20;87.00;;;;;;5033742;28;20092;-82
2021/09/22 01:55:12;;;;;;;18.13;11.20;;;11.20;86.90;;;;;;5015954;28;20053;-82
2021/09/22 01:57:38;;;;;;;15.50;11.20;;;11.20;86.90;;;;;;5032520;28;20033;-82
2021/09/22 02:00:05;;;;;;;17.80;10.95;;;11.10;86.80;;;;;;5032518;28;20486;-82
2021/09/22 02:02:31;;;;;;;15.18;11.10;;;11.10;86.70;;;;;;5033470;28;20029;-83
2021/09/22 02:04:57;;;;;;;16.10;11.60;;;11.10;86.70;;;;;;5016028;28;20083;-82
2021/09/22 02:07:23;;;;;;;15.27;11.05;;;11.10;86.70;;;;;;5032280;28;20025;-82
2021/09/22 02:09:49;;;;;;;13.65;11.05;;;11.10;86.70;;;;;;5033653;28;20401;-82
2021/09/22 02:12:14;;;;;;;14.40;10.88;;;11.00;86.60;;;;;;5032386;28;20609;-82
2021/09/22 02:14:40;;;;;;;20.48;12.27;;;11.10;86.70;;;;;;5015378;28;20022;-82
2021/09/22 02:17:06;;;;;;;20.88;13.85;;;11.00;86.70;;;;;;5028481;28;20060;-82
2021/09/22 02:19:32;;;;;;;19.70;12.75;;;11.00;86.60;;;;;;5033517;28;20026;-82
2021/09/22 02:21:58;;;;;;;17.67;12.43;;;10.90;86.60;;;;;;4999070;28;20091;-82
2021/09/22 02:24:24;;;;;;;22.77;12.75;;;10.90;86.70;;;;;;5033360;28;20028;-82
2021/09/22 02:26:51;;;;;;;16.98;12.70;;;10.90;86.80;;;;;;5032096;28;20440;-82
2021/09/22 02:29:18;;;;;;;19.08;13.65;;;10.90;86.80;;;;;;5032149;28;20513;-82
2021/09/22 02:31:45;;;;;;;20.48;13.75;;;10.90;86.90;;;;;;5031982;28;20392;-82
2021/09/22 02:34:11;;;;;;;20.10;13.73;;;10.90;86.90;;;;;;4999169;28;20036;-82
2021/09/22 02:36:36;;;;;;;18.50;13.02;;;10.90;87.00;;;;;;5031760;28;20126;-82
2021/09/22 02:39:03;;;;;;;19.20;13.55;;;10.90;87.10;;;;;;4999044;28;20056;-82
2021/09/22 02:41:28;;;;;;;20.92;14.45;;;10.80;87.10;;;;;;5032893;28;20433;-82
2021/09/22 02:43:54;;;;;;;19.27;14.52;;;10.80;87.20;;;;;;5015567;28;20105;-82
2021/09/22 02:46:19;;;;;;;19.08;13.77;;;10.80;87.30;;;;;;5031625;28;20033;-82
2021/09/22 02:48:45;;;;;;;21.50;13.77;;;10.80;87.40;;;;;;5028414;28;20097;-82
2021/09/22 02:51:11;;;;;;;19.92;13.95;;;10.80;87.60;;;;;;5008706;28;20059;-83
2021/09/22 02:53:36;;;;;;;19.38;12.88;;;10.80;87.60;;;;;;5031651;28;20034;-82
2021/09/22 02:56:02;;;;;;;20.02;13.65;;;10.80;87.60;;;;;;5014732;28;20605;-82
2021/09/22 02:58:28;;;;;;;16.92;12.65;;;10.70;87.60;;;;;;5028094;28;20060;-82
2021/09/22 03:00:54;;;;;;;19.85;12.95;;;10.70;87.70;;;;;;4993398;28;20478;-82
2021/09/22 03:03:20;;;;;;;19.63;13.02;;;10.70;87.70;;;;;;4998021;28;20037;-82
2021/09/22 03:05:46;;;;;;;20.80;12.90;;;10.70;87.70;;;;;;5032114;28;20021;-82
2021/09/22 03:08:11;;;;;;;15.75;12.10;;;10.70;87.70;;;;;;5013305;28;20026;-82
2021/09/22 03:10:37;;;;;;;17.88;13.18;;;10.70;87.90;;;;;;5029340;28;20025;-83
2021/09/22 03:13:03;;;;;;;15.63;11.95;;;10.70;88.10;;;;;;5012878;28;20037;-83
2021/09/22 03:15:28;;;;;;;17.52;11.93;;;10.70;88.30;;;;;;5032375;28;20038;-82
2021/09/22 03:17:55;;;;;;;14.60;11.23;;;10.70;88.50;;;;;;5031291;28;20069;-82
2021/09/22 03:20:21;;;;;;;14.38;11.80;;;10.70;88.50;;;;;;5031529;28;20072;-82
2021/09/22 03:22:47;;;;;;;15.98;10.60;;;10.70;88.50;;;;;;5015063;28;20051;-82
2021/09/22 03:25:13;;;;;;;20.52;12.07;;;10.60;88.40;;;;;;5011810;28;20048;-82
2021/09/22 03:27:38;;;;;;;15.20;11.35;;;10.70;88.30;;;;;;5033445;28;20030;-82
2021/09/22 03:30:07;;;;;;;19.38;12.40;;;10.70;88.20;;;;;;5036360;28;20374;-82
2021/09/22 03:32:32;;;;;;;20.70;12.00;;;10.60;88.10;;;;;;5019304;28;20033;-82
2021/09/22 03:34:58;;;;;;;17.00;10.98;;;10.60;88.10;;;;;;5031906;28;20129;-83
2021/09/22 03:37:24;;;;;;;18.02;10.73;;;10.60;88.10;;;;;;5015411;28;20030;-82
2021/09/22 03:39:49;;;;;;;22.20;11.68;;;10.60;88.20;;;;;;4999029;28;20026;-82
2021/09/22 03:42:15;;;;;;;20.25;13.05;;;10.50;88.20;;;;;;5035030;28;20038;-82
2021/09/22 03:44:41;;;;;;;16.05;11.13;;;10.50;88.20;;;;;;5035124;28;20033;-82
2021/09/22 03:47:06;;;;;;;20.70;12.43;;;10.50;88.40;;;;;;5015085;28;20045;-82
2021/09/22 03:49:32;;;;;;;17.02;12.85;;;10.50;88.40;;;;;;5031708;28;20025;-82
2021/09/22 03:51:57;;;;;;;18.65;12.38;;;10.50;88.40;;;;;;5007504;28;20045;-83
2021/09/22 03:54:23;;;;;;;20.00;12.65;;;10.40;88.40;;;;;;5018376;28;20482;-82
2021/09/22 03:56:49;;;;;;;19.88;13.43;;;10.40;88.40;;;;;;5037372;28;20049;-82
2021/09/22 03:59:14;;;;;;;19.35;11.65;;;10.40;88.50;;;;;;5038006;28;20033;-83
2021/09/22 04:01:40;;;;;;;15.05;11.38;;;10.40;88.60;;;;;;5054697;28;20024;-83
2021/09/22 04:04:06;;;;;;;18.80;12.18;;;10.40;88.50;;;;;;5054576;28;20348;-83
2021/09/22 04:06:31;;;;;;;17.58;12.20;;;10.30;88.50;;;;;;5055520;28;20033;-83
2021/09/22 04:08:57;;;;;;;17.85;11.85;;;10.40;88.50;;;;;;5034456;28;20071;-82
2021/09/22 04:11:23;;;;;;;21.00;14.77;;;10.40;88.50;;;;;;5007340;28;20091;-82
2021/09/22 04:13:49;;;;;;;19.38;12.43;;;10.40;88.70;;;;;;5021389;28;20045;-83
2021/09/22 04:16:15;;;;;;;21.30;12.70;;;10.30;88.70;;;;;;5037560;28;20437;-82
2021/09/22 04:18:41;;;;;;;16.58;11.85;;;10.30;88.80;;;;;;5035687;28;20063;-82
2021/09/22 04:21:07;;;;;;;21.35;14.77;;;10.30;88.70;;;;;;5055115;28;20060;-83
2021/09/22 04:23:32;;;;;;;19.52;13.25;;;10.30;88.70;;;;;;5020951;28;20036;-82
2021/09/22 04:25:58;;;;;;;24.75;13.02;;;10.30;88.70;;;;;;5020898;28;20033;-82
2021/09/22 04:28:23;;;;;;;20.17;13.43;;;10.30;88.70;;;;;;5017195;28;20033;-83
2021/09/22 04:30:49;;;;;;;23.90;14.88;;;10.30;88.70;;;;;;5017698;28;20040;-82
2021/09/22 04:33:15;;;;;;;22.13;13.38;;;10.30;88.70;;;;;;5053795;28;20100;-82
2021/09/22 04:35:41;;;;;;;21.58;12.75;;;10.20;88.70;;;;;;5034101;28;20024;-83
2021/09/22 04:38:07;;;;;;;19.63;13.38;;;10.20;88.80;;;;;;5016878;28;20034;-83
2021/09/22 04:40:34;;;;;;;20.05;14.43;;;10.20;89.00;;;;;;5017651;28;20026;-83
2021/09/22 04:43:01;;;;;;;20.77;13.32;;;10.20;88.90;;;;;;5017523;28;20029;-83
2021/09/22 04:45:28;;;;;;;25.05;14.93;;;10.20;88.90;;;;;;5019767;28;20437;-83
2021/09/22 04:47:55;;;;;;;18.60;13.40;;;10.20;88.90;;;;;;5036516;28;20066;-82
2021/09/22 04:50:22;;;;;;;23.85;15.15;;;10.10;88.90;;;;;;5034033;28;20029;-83
2021/09/22 04:52:48;;;;;;;21.52;14.30;;;10.20;89.10;;;;;;5015724;28;20461;-82
2021/09/22 04:55:14;;;;;;;22.55;14.80;;;10.20;89.10;;;;;;5049163;28;20084;-82
2021/09/22 04:57:40;;;;;;;18.27;13.32;;;10.20;89.10;;;;;;5035779;28;20091;-83
2021/09/22 05:00:07;;;;;;;19.33;12.70;;;10.10;89.20;;;;;;5036997;28;20371;-82
2021/09/22 05:02:33;;;;;;;21.23;14.73;;;10.10;89.20;;;;;;5036882;28;20520;-82
2021/09/22 05:04:58;;;;;;;22.40;13.07;;;10.10;89.20;;;;;;5037043;28;20033;-83
2021/09/22 05:07:24;;;;;;;19.35;13.32;;;10.10;89.20;;;;;;5037473;28;20036;-82
2021/09/22 05:09:50;;;;;;;20.77;12.90;;;10.10;89.20;;;;;;5033503;28;20141;-82
2021/09/22 05:12:15;;;;;;;22.45;14.63;;;10.10;89.20;;;;;;5023975;28;20036;-82
2021/09/22 05:14:41;;;;;;;18.88;13.20;;;10.10;89.40;;;;;;5037000;28;20061;-82
2021/09/22 05:17:07;;;;;;;22.65;13.77;;;10.10;89.30;;;;;;5053551;28;20086;-83
2021/09/22 05:19:35;;;;;;;23.13;12.40;;;10.20;89.40;;;;;;5054698;28;20112;-82
2021/09/22 05:22:00;;;;;;;18.65;13.50;;;10.10;89.20;;;;;;5053197;28;20056;-82
2021/09/22 05:24:26;;;;;;;16.13;11.95;;;10.10;89.20;;;;;;5053539;28;20063;-82
2021/09/22 05:26:52;;;;;;;19.42;13.25;;;10.10;89.10;;;;;;5036770;28;20029;-82
2021/09/22 05:29:17;;;;;;;19.33;13.63;;;10.10;89.10;;;;;;5037031;28;20038;-82
2021/09/22 05:31:43;;;;;;;22.80;13.20;;;10.20;89.20;;;;;;5019852;28;20033;-82
2021/09/22 05:34:09;;;;;;;20.73;13.23;;;10.20;89.30;;;;;;5036590;28;20497;-82
2021/09/22 05:36:35;;;;;;;22.45;14.15;;;10.10;89.20;;;;;;5054371;28;20017;-82
2021/09/22 05:39:04;;;;;;;22.52;14.10;;;10.10;89.30;;;;;;5030240;28;20457;-82
2021/09/22 05:41:29;;;;;;;18.95;14.57;;;10.20;89.30;;;;;;5036291;28;20508;-82
2021/09/22 05:43:55;;;;;;;26.15;14.13;;;10.20;89.90;;;;;;5016281;28;20057;-83
2021/09/22 05:46:21;;;;;;;19.88;13.95;;;10.20;89.40;;;;;;5050767;28;20025;-83
2021/09/22 05:48:47;;;;;;;21.42;13.27;;;10.20;89.40;;;;;;5052960;28;20098;-82
2021/09/22 05:51:13;;;;;;;19.20;13.75;;;10.20;89.50;;;;;;5051576;28;20060;-83
2021/09/22 05:53:40;;;;;;;18.40;13.45;;;10.20;90.00;;;;;;5036028;28;20025;-82
2021/09/22 05:56:06;;;;;;;17.83;12.80;;;10.20;89.50;;;;;;5053795;28;20056;-82
2021/09/22 05:58:32;;;;;;;17.38;13.07;;;10.30;89.60;;;;;;5035669;28;20040;-82
2021/09/22 06:00:59;;;;;;;19.05;13.30;;;10.30;89.70;;;;;;5035450;28;20456;-82
2021/09/22 06:03:25;;;;;;;18.70;12.50;;;10.30;90.10;;;;;;5016260;28;20075;-82
2021/09/22 06:05:50;;;;;;;14.95;11.80;;;10.40;89.80;;;;;;5016062;28;20394;-82
2021/09/22 06:08:16;;;;;;;16.63;12.15;;;10.40;89.80;;;;;;5024725;28;20043;-82
2021/09/22 06:10:44;;;;;;;19.50;11.80;;;10.40;89.80;;;;;;5035965;28;20094;-82
2021/09/22 06:13:10;;;;;;;15.38;11.00;;;10.50;90.00;;;;;;5023564;28;20025;-82
2021/09/22 06:15:35;;;;;;;13.90;10.52;;;10.50;90.00;;;;;;5016304;28;20371;-82
2021/09/22 06:18:01;;;;;;;16.13;10.25;;;10.50;90.00;;;;;;5011035;28;20078;-82
2021/09/22 06:20:26;;;;;;;13.68;10.20;;;10.60;90.00;;;;;;5035665;28;20020;-82
2021/09/22 06:22:52;;;;;;;14.13;9.82;;;10.60;90.10;;;;;;5015582;28;20045;-82
2021/09/22 06:25:18;;;;;;;14.13;9.45;;;10.70;90.10;;;;;;5032459;28;20065;-82
2021/09/22 06:27:44;;;;;;;14.75;10.55;;;10.80;90.20;;;;;;5042165;28;20057;-82
2021/09/22 06:30:11;;;;;;;14.90;9.55;;;10.80;90.20;;;;;;5035253;28;20482;-82
2021/09/22 06:32:38;;;;;;;16.02;10.07;;;10.80;90.20;;;;;;5026139;28;20106;-83
2021/09/22 06:35:05;;;;;;;18.13;10.25;;;10.90;90.30;;;;;;5015637;28;20025;-83
2021/09/22 06:37:31;;;;;;;14.07;10.73;;;11.00;90.30;;;;;;5032120;28;20026;-82
2021/09/22 06:39:57;;;;;;;15.63;9.75;;;11.00;90.30;;;;;;5037003;28;20079;-82
2021/09/22 06:42:23;;;;;;;15.07;10.40;;;11.10;90.30;;;;;;5018492;28;20520;-82
2021/09/22 06:44:48;;;;;;;13.38;10.30;;;11.10;90.20;;;;;;5031396;28;20054;-83
2021/09/22 06:47:14;;;;;;;17.48;10.10;;;11.20;90.20;;;;;;5024780;28;20029;-83
2021/09/22 06:49:39;;;;;;;16.52;10.27;;;11.30;90.30;;;;;;4998584;28;20125;-82
2021/09/22 06:52:05;;;;;;;17.35;9.25;;;11.40;90.30;;;;;;5029995;28;20534;-83
2021/09/22 06:54:33;;;;;;;16.45;10.35;;;11.40;90.20;;;;;;5034334;28;20053;-83
2021/09/22 06:56:59;;;;;;;20.23;10.20;;;11.60;90.10;;;;;;5033283;28;20559;-83
2021/09/22 06:59:25;;;;;;;19.60;10.30;;;11.70;90.10;;;;;;5029490;28;20030;-83
2021/09/22 07:01:50;;;;;;;16.95;11.20;;;11.80;90.00;;;;;;5021252;28;20030;-83
2021/09/22 07:04:16;;;;;;;19.83;11.45;;;11.90;89.90;;;;;;5032360;28;20118;-83
2021/09/22 07:06:42;;;;;;;18.20;9.82;;;12.10;89.70;;;;;;5022692;28;20033;-82
2021/09/22 07:09:08;;;;;;;19.30;11.23;;;12.10;89.40;;;;;;5048348;28;20059;-83
2021/09/22 07:11:34;;;;;;;18.48;11.27;;;12.20;89.30;;;;;;5012075;28;20030;-83
2021/09/22 07:14:00;;;;;;;22.80;11.20;;;12.30;89.40;;;;;;5040824;28;20490;-83
2021/09/22 07:16:27;;;;;;;20.20;12.45;;;12.40;89.50;;;;;;5030408;28;20121;-83
2021/09/22 07:18:53;;;;;;;19.88;11.43;;;12.50;89.40;;;;;;5012201;28;20032;-79
2021/09/22 07:21:19;;;;;;;20.70;12.57;;;12.60;89.30;;;;;;5044719;28;20036;-79
2021/09/22 07:23:44;;;;;;;17.35;10.90;;;12.70;89.20;;;;;;5030933;28;20025;-79
2021/09/22 07:26:10;;;;;;;19.20;11.38;;;12.80;89.00;;;;;;5046906;28;20025;-79
2021/09/22 07:28:36;;;;;;;16.08;11.73;;;12.90;88.60;;;;;;5029846;28;20137;-80
2021/09/22 07:31:02;;;;;;;17.85;12.70;;;13.00;88.70;;;;;;5014641;28;20032;-80
2021/09/22 07:33:28;;;;;;;18.50;12.48;;;13.10;88.60;;;;;;5029855;28;20497;-80
2021/09/22 07:35:55;;;;;;;22.50;13.05;;;13.20;88.50;;;;;;5030252;28;20029;-78
2021/09/22 07:38:21;;;;;;;21.17;13.43;;;13.30;88.30;;;;;;5045245;28;20013;-78
2021/09/22 07:40:46;;;;;;;27.23;12.52;;;13.40;88.20;;;;;;5030092;28;20025;-79
2021/09/22 07:43:12;;;;;;;26.77;13.50;;;13.50;87.90;;;;;;5030271;28;20100;-79
2021/09/22 07:45:38;;;;;;;18.73;12.50;;;13.60;87.70;;;;;;5047430;28;20099;-79
2021/09/22 07:48:05;;;;;;;22.85;13.05;;;13.70;87.60;;;;;;5033525;28;20032;-78
2021/09/22 07:50:31;;;;;;;16.65;11.98;;;13.80;87.40;;;;;;5028018;28;20032;-79
2021/09/22 07:52:57;;;;;;;16.48;12.07;;;13.90;87.00;;;;;;5030444;28;20029;-79
2021/09/22 07:55:23;;;;;;;23.20;14.68;;;14.00;86.80;;;;;;5045835;28;20056;-79
2021/09/22 07:57:52;;;;;;;20.20;13.70;;;14.10;86.80;;;;;;5030280;28;20037;-79
2021/09/22 08:00:18;;;;;;;22.50;14.80;;;14.20;86.60;;;;;;5046447;28;20032;-79
2021/09/22 08:02:44;;;;;;;25.48;15.32;;;14.20;86.10;;;;;;5019881;28;20076;-79
2021/09/22 08:05:10;;;;;;;21.23;13.52;;;14.30;85.80;;;;;;5046374;28;20033;-79
2021/09/22 08:07:36;;;;;;;21.63;14.02;;;14.30;85.50;;;;;;5015923;28;20057;-80
2021/09/22 08:10:03;;;;;;;26.90;14.35;;;14.30;85.30;;;;;;5046247;28;20667;-80
2021/09/22 08:12:28;;;;;;;22.52;15.68;;;14.40;85.50;;;;;;5013641;28;20040;-79
2021/09/22 08:14:54;;;;;;;21.52;14.15;;;14.40;85.30;;;;;;5033141;28;20025;-79
2021/09/22 08:17:20;;;;;;;20.95;14.57;;;14.50;84.90;;;;;;5017549;28;20033;-77
2021/09/22 08:19:46;;;;;;;22.10;14.52;;;14.50;84.80;;;;;;5026118;28;20033;-77
2021/09/22 08:22:12;;;;;;;20.08;13.70;;;14.70;84.50;;;;;;5018776;28;20041;-77
2021/09/22 08:24:37;;;;;;;23.33;15.35;;;14.70;84.00;;;;;;5049218;28;21815;-77
2021/09/22 08:27:04;;;;;;;22.70;14.27;;;14.90;83.90;;;;;;5054202;28;20111;-77
2021/09/22 08:29:32;;;;;;;30.42;14.23;;;15.00;83.30;;;;;;5055233;28;20474;-77
2021/09/22 08:31:57;;;;;;;26.83;15.18;;;15.20;83.10;;;;;;5054284;28;20047;-77
2021/09/22 08:34:23;;;;;;;24.08;14.38;;;15.30;82.70;;;;;;5055031;28;20092;-77
2021/09/22 08:36:49;;;;;;;22.83;14.13;;;15.50;82.60;;;;;;5054990;28;20033;-77
2021/09/22 08:39:16;;;;;;;25.27;14.82;;;15.50;81.80;;;;;;5054289;28;20033;-77
2021/09/22 08:41:43;;;;;;;18.77;14.23;;;15.60;81.20;;;;;;5035144;28;20116;-77
2021/09/22 08:44:13;;;;;;;25.02;15.75;;;15.60;81.10;;;;;;5047049;28;20045;-77
2021/09/22 08:46:40;;;;;;;23.80;13.98;;;15.60;81.30;;;;;;5045722;28;20052;-78
2021/09/22 08:49:07;;;;;;;21.48;15.65;;;15.70;81.40;;;;;;5037045;28;20068;-77
2021/09/22 08:51:34;;;;;;;20.95;13.95;;;15.80;81.30;;;;;;5052769;28;20541;-78
2021/09/22 08:54:01;;;;;;;24.50;14.57;;;15.90;81.20;;;;;;5037032;28;20052;-78
2021/09/22 08:56:27;;;;;;;25.42;16.08;;;15.90;80.80;;;;;;5054158;28;20102;-78
2021/09/22 08:58:53;;;;;;;19.08;13.82;;;16.00;80.40;;;;;;5054891;28;20029;-77
2021/09/22 09:01:21;;;;;;;22.67;13.93;;;16.00;80.40;;;;;;5036227;28;20044;-78
2021/09/22 09:03:49;;;;;;;22.50;15.65;;;16.10;80.70;;;;;;5054114;28;20032;-77
2021/09/22 09:06:35;;;;;;;21.80;14.35;;;16.20;80.50;;;;;;5054353;28;20643;-77
2021/09/22 09:09:02;;;;;;;24.52;15.73;;;16.30;80.10;;;;;;5054932;28;20431;-78
2021/09/22 09:11:32;;;;;;;19.67;14.00;;;16.50;79.60;;;;;;5036572;28;20591;-79
2021/09/22 09:14:00;;;;;;;23.48;16.08;;;16.60;79.30;;;;;;5054680;28;20047;-78
2021/09/22 09:16:43;;;;;;;20.95;14.75;;;16.80;78.80;;;;;;5054382;28;20036;-78
2021/09/22 09:19:15;;;;;;;23.73;14.85;;;16.90;78.30;;;;;;5054557;28;20114;-78
2021/09/22 09:22:08;;;;;;;21.48;14.38;;;17.00;77.80;;;;;;5054267;28;20489;-79
2021/09/22 09:24:47;;;;;;;21.67;14.57;;;17.10;77.30;;;;;;5054252;28;20051;-90
2021/09/22 09:27:42;;;;;;;24.27;14.70;;;17.20;77.00;;;;;;5054600;28;20033;-88
2021/09/22 09:30:20;;;;;;;27.08;15.32;;;17.30;76.40;;;;;;5036681;28;20026;-88
2021/09/22 09:32:46;;;;;;;21.42;14.27;;;17.50;75.90;;;;;;5037034;28;20509;-89
2021/09/22 09:35:13;;;;;;;23.98;15.23;;;17.60;76.70;;;;;;5054912;28;20127;-89
2021/09/22 09:37:41;;;;;;;19.75;14.18;;;17.80;75.40;;;;;;5054438;28;20033;-89
2021/09/22 09:40:21;;;;;;;25.65;14.85;;;17.90;75.00;;;;;;5054841;28;20059;-89
2021/09/22 09:42:49;;;;;;;25.52;14.90;;;18.10;74.40;;;;;;5053954;28;20454;-89
2021/09/22 09:45:21;;;;;;;24.27;15.25;;;18.20;73.90;;;;;;5036788;28;20470;-88
2021/09/22 09:48:05;;;;;;;24.45;14.98;;;18.40;73.40;;;;;;5054098;28;20024;-89
2021/09/22 09:50:57;;;;;;;20.10;13.43;;;18.50;72.80;;;;;;5036674;28;20016;-89
2021/09/22 09:53:25;;;;;;;24.75;14.43;;;18.50;71.80;;;;;;5053990;28;20029;-89
2021/09/22 09:55:52;;;;;;;25.05;14.05;;;18.50;71.60;;;;;;5036703;28;20045;-89
2021/09/22 09:58:21;;;;;;;19.73;14.40;;;18.40;71.60;;;;;;5020431;28;20078;-89
2021/09/22 10:00:50;;;;;;;20.95;12.95;;;18.40;72.40;;;;;;5020091;28;20025;-89
2021/09/22 10:03:22;;;;;;;18.95;12.77;;;18.40;72.30;;;;;;5033299;28;20437;-90
2021/09/22 10:05:52;;;;;;;20.33;13.73;;;18.50;72.20;;;;;;5034435;28;20124;-89
2021/09/22 10:08:20;;;;;;;21.85;12.93;;;18.50;71.50;;;;;;5016775;28;20025;-89
2021/09/22 10:10:48;;;;;;;21.58;14.48;;;18.60;71.00;;;;;;5034009;28;20030;-89
2021/09/22 10:13:16;;;;;;;20.02;13.18;;;18.60;69.50;;;;;;5046285;28;20456;-89
2021/09/22 10:15:44;;;;;;;20.88;13.35;;;18.60;69.70;;;;;;5036386;28;20029;-90
2021/09/22 10:18:11;;;;;;;21.37;14.53;;;18.70;69.90;;;;;;5036071;28;20028;-89
2021/09/22 10:20:41;;;;;;;17.77;12.25;;;18.80;69.70;;;;;;5036169;28;20029;-89
2021/09/22 10:23:07;;;;;;;20.90;13.65;;;18.90;69.90;;;;;;5053219;28;20025;-89
2021/09/22 10:25:34;;;;;;;19.98;13.00;;;19.10;69.40;;;;;;5036180;28;20390;-89
2021/09/22 10:28:01;;;;;;;18.70;12.00;;;19.30;68.20;;;;;;5036114;28;20028;-90
2021/09/22 10:30:39;;;;;;;20.95;13.55;;;19.30;67.20;;;;;;5019734;28;20167;-89
2021/09/22 10:33:07;;;;;;;17.65;11.95;;;19.40;67.30;;;;;;5035787;28;20060;-89
2021/09/22 10:35:36;;;;;;;17.15;12.82;;;19.40;67.70;;;;;;5036372;28;20124;-89
2021/09/22 10:38:21;;;;;;;16.25;12.07;;;19.50;67.00;;;;;;5052662;28;20033;-90
2021/09/22 10:40:50;;;;;;;19.83;13.35;;;19.50;67.10;;;;;;5053522;28;20496;-90
2021/09/22 10:43:19;;;;;;;;;;;19.50;65.40;;;;;;5054029;28;20032;-87
2021/09/22 10:45:46;;;;;;;17.42;12.95;;;19.50;66.40;;;;;;5036119;28;19909;-90
2021/09/22 10:48:23;;;;;;;18.48;12.23;;;19.40;66.20;;;;;;5018918;28;20037;-90
2021/09/22 10:50:55;;;;;;;21.52;13.85;;;19.30;65.30;;;;;;5035794;28;20557;-89
2021/09/22 10:56:13;;;;;;;20.73;12.85;;;19.30;67.00;;;;;;5053334;28;20187;-88
2021/09/22 10:58:42;;;;;;;16.23;11.45;;;19.30;67.20;;;;;;5035647;28;20430;-89
2021/09/22 11:01:08;;;;;;;16.08;11.23;;;19.40;67.40;;;;;;5035674;28;20041;-89
2021/09/22 11:03:49;;;;;;;20.25;13.05;;;19.50;66.40;;;;;;5019384;28;20044;-89
2021/09/22 11:06:45;;;;;;;18.67;11.55;;;19.50;64.90;;;;;;5035473;28;20017;-90
2021/09/22 11:09:25;;;;;;;22.33;12.57;;;19.60;65.80;;;;;;5053203;28;20025;-90
2021/09/22 11:11:58;;;;;;;16.60;11.82;;;19.50;64.30;;;;;;5052728;28;20028;-90
2021/09/22 11:14:30;;;;;;;20.35;12.05;;;19.50;64.30;;;;;;5034403;28;20146;-90
2021/09/22 11:16:58;;;;;;;20.35;12.30;;;19.70;64.20;;;;;;5034605;28;20021;-89
2021/09/22 11:19:25;;;;;;;19.20;11.27;;;19.70;62.70;;;;;;5053368;28;20025;-90
2021/09/22 11:21:51;;;;;;;17.98;11.90;;;19.70;62.80;;;;;;5053045;28;20033;-89
2021/09/22 11:24:21;;;;;;;20.38;13.05;;;19.80;63.50;;;;;;5052366;28;20033;-87
2021/09/22 11:27:07;;;;;;;15.75;11.45;;;19.80;63.00;;;;;;5035147;28;20028;-89
2021/09/22 11:29:49;;;;;;;21.20;13.30;;;19.80;63.00;;;;;;5035455;28;20025;-89
2021/09/22 11:32:38;;;;;;;24.13;14.27;;;19.70;64.00;;;;;;5052753;28;20033;-88
2021/09/22 11:35:10;;;;;;;;;;;19.70;62.70;;;;;;5053433;28;20025;-87
2021/09/22 11:37:38;;;;;;;19.88;13.75;;;19.70;63.50;;;;;;5052571;28;19991;-90
2021/09/22 11:40:24;;;;;;;18.50;13.40;;;19.70;64.30;;;;;;5052507;28;20028;-88
2021/09/22 11:42:55;;;;;;;18.90;11.65;;;19.70;62.70;;;;;;5052616;28;20397;-85
2021/09/22 11:45:27;;;;;;;21.77;12.60;;;19.70;62.90;;;;;;5031618;28;20481;-89
2021/09/22 11:47:53;;;;;;;22.30;12.52;;;19.80;63.60;;;;;;5028272;28;20473;-89
2021/09/22 11:50:35;;;;;;;19.42;11.95;;;19.90;63.30;;;;;;5055119;28;20091;-89
2021/09/22 11:53:02;;;;;;;18.13;11.90;;;20.00;63.10;;;;;;5031062;28;20540;-88
2021/09/22 12:01:28;;;;;;;25.05;14.90;;;20.10;62.00;;;;;;5036931;28;20487;-91
2021/09/22 12:03:54;;;;;;;25.02;14.55;;;20.10;60.80;;;;;;5017046;28;20036;-89
2021/09/22 12:06:20;;;;;;;19.13;12.55;;;20.00;60.00;;;;;;5016599;28;20433;-89
2021/09/22 12:08:48;;;;;;;15.43;9.98;;;20.00;61.70;;;;;;5030887;28;20029;-89
2021/09/22 12:11:16;;;;;;;25.50;12.07;;;20.10;61.20;;;;;;5031181;28;20081;-90
2021/09/22 12:13:44;;;;;;;20.13;13.25;;;20.20;61.30;;;;;;5047490;28;20025;-91
2021/09/22 12:16:11;;;;;;;18.97;12.47;;;20.20;61.20;;;;;;5031615;28;20056;-89
2021/09/22 12:18:40;;;;;;;18.95;13.68;;;20.20;60.80;;;;;;5047908;28;20348;-89
2021/09/22 12:21:06;;;;;;;20.13;11.52;;;20.20;58.80;;;;;;5029699;28;20124;-90
2021/09/22 12:23:34;;;;;;;20.05;13.23;;;20.20;60.10;;;;;;5030730;28;20116;-91
2021/09/22 12:26:09;;;;;;;24.83;14.45;;;20.20;60.00;;;;;;5030296;28;20041;-89
2021/09/22 12:28:35;;;;;;;23.33;13.88;;;20.20;60.10;;;;;;5030998;28;20021;-90
2021/09/22 12:31:20;;;;;;;19.52;13.20;;;20.10;60.70;;;;;;5029428;28;20108;-91
2021/09/22 12:33:46;;;;;;;24.42;14.55;;;20.00;60.40;;;;;;5034397;28;20030;-92
2021/09/22 12:36:16;;;;;;;19.33;13.15;;;20.00;61.50;;;;;;5034328;28;20394;-85
2021/09/22 12:38:52;;;;;;;21.77;13.55;;;20.10;61.70;;;;;;5035584;28;20018;-88
2021/09/22 12:41:21;;;;;;;22.55;12.20;;;20.30;60.80;;;;;;5035793;28;20057;-87